Time;durP1;ratioP1;P1;durP2;ratioP2;P2;SDS_P1;SDS_P2;PMS_P1;PMS_P2;Temp;Humidity;BMP_temperature;BMP_pressure;BME280_temperature;BME280_humidity;BME280_pressure;Samples;Min_cycle;Max_cycle;Signal;HPM_P1;HPM_P2
2023/05/29 00:01:12;;;;;;;13.70;3.78;;;17.40;99.90;;;;;;5106289;28;20066;-58
2023/05/29 00:03:37;;;;;;;9.15;3.88;;;17.30;99.90;;;;;;5111767;28;20047;-58
2023/05/29 00:06:03;;;;;;;11.88;3.78;;;17.30;99.90;;;;;;5112765;28;20524;-60
2023/05/29 00:08:29;;;;;;;12.38;4.43;;;17.30;99.90;;;;;;5111716;28;20099;-56
2023/05/29 00:10:55;;;;;;;17.92;3.50;;;17.30;99.90;;;;;;5106375;28;20114;-54
2023/05/29 00:13:20;;;;;;;13.13;4.38;;;17.20;99.90;;;;;;5112406;28;20058;-57
2023/05/29 00:15:46;;;;;;;9.52;3.90;;;17.10;99.90;;;;;;5112759;28;20034;-55
2023/05/29 00:18:11;;;;;;;7.78;3.53;;;17.10;99.90;;;;;;5112876;28;20069;-55
2023/05/29 00:20:37;;;;;;;14.30;3.75;;;17.00;99.90;;;;;;5111781;28;20027;-58
2023/05/29 00:23:05;;;;;;;7.30;3.20;;;17.00;99.90;;;;;;5109984;28;20016;-56
2023/05/29 00:25:31;;;;;;;8.63;4.22;;;16.90;99.90;;;;;;5110170;28;20086;-56
2023/05/29 00:27:57;;;;;;;10.73;4.55;;;16.90;99.90;;;;;;5113189;28;20492;-53
2023/05/29 00:30:22;;;;;;;11.27;4.50;;;16.80;99.90;;;;;;5113094;28;20034;-56
2023/05/29 00:32:48;;;;;;;8.70;3.70;;;16.80;99.90;;;;;;5113092;28;20032;-58
2023/05/29 00:35:14;;;;;;;8.82;3.53;;;16.70;99.90;;;;;;5111913;28;20028;-58
2023/05/29 00:37:40;;;;;;;13.40;4.35;;;16.70;99.90;;;;;;5110831;28;20042;-57
2023/05/29 00:40:06;;;;;;;13.52;4.40;;;16.70;99.90;;;;;;5113122;27;20019;-60
2023/05/29 00:42:31;;;;;;;12.23;3.90;;;16.60;99.90;;;;;;5112053;28;20534;-58
2023/05/29 00:44:57;;;;;;;7.70;3.28;;;16.60;99.90;;;;;;5111213;28;20028;-58
2023/05/29 00:47:23;;;;;;;11.65;4.13;;;16.60;99.90;;;;;;5111334;28;20027;-56
2023/05/29 00:49:51;;;;;;;5.95;3.70;;;16.50;99.90;;;;;;5112769;28;20020;-57
2023/05/29 00:52:18;;;;;;;11.30;4.57;;;16.50;99.90;;;;;;5110715;28;20028;-58
2023/05/29 00:54:45;;;;;;;10.27;3.72;;;16.50;99.90;;;;;;5108311;28;20024;-59
2023/05/29 00:57:13;;;;;;;10.30;4.22;;;16.30;99.90;;;;;;5110999;28;20477;-59
2023/05/29 00:59:41;;;;;;;9.63;3.33;;;16.30;99.90;;;;;;5106162;28;20055;-60
2023/05/29 01:02:07;;;;;;;9.40;3.92;;;16.30;99.90;;;;;;5110552;28;20015;-58
2023/05/29 01:04:35;;;;;;;7.30;4.05;;;16.30;99.90;;;;;;5111560;28;20024;-56
2023/05/29 01:07:02;;;;;;;12.25;4.05;;;16.20;99.90;;;;;;5104552;28;20031;-60
2023/05/29 01:09:29;;;;;;;10.45;4.57;;;16.20;99.90;;;;;;5109769;28;20027;-57
2023/05/29 01:12:10;;;;;;;15.70;4.03;;;16.10;99.90;;;;;;5110312;28;20038;-55
2023/05/29 01:14:41;;;;;;;12.27;4.47;;;16.10;99.90;;;;;;5109337;28;20061;-58
2023/05/29 01:17:16;;;;;;;8.30;3.53;;;16.00;99.90;;;;;;5109873;28;20565;-56
2023/05/29 01:19:55;;;;;;;14.35;4.15;;;16.00;99.90;;;;;;5108963;28;20505;-58
2023/05/29 01:23:05;;;;;;;9.13;3.90;;;16.00;99.90;;;;;;5109070;28;20012;-58
2023/05/29 01:25:56;;;;;;;11.43;4.03;;;15.90;99.90;;;;;;5106155;28;20115;-57
2023/05/29 01:28:26;;;;;;;12.68;3.92;;;15.90;99.90;;;;;;5110996;28;20367;-55
2023/05/29 01:30:56;;;;;;;10.23;3.38;;;15.80;99.90;;;;;;5105898;28;20081;-55
2023/05/29 01:33:22;;;;;;;11.45;3.47;;;15.80;99.90;;;;;;5111593;28;20031;-53
2023/05/29 01:35:47;;;;;;;12.25;4.35;;;15.70;99.90;;;;;;5110705;28;20043;-57
2023/05/29 01:38:13;;;;;;;11.10;4.65;;;15.70;99.90;;;;;;5110361;28;20058;-57
2023/05/29 01:40:39;;;;;;;6.43;3.97;;;15.70;99.90;;;;;;5111300;28;20036;-54
2023/05/29 01:43:05;;;;;;;8.63;3.97;;;15.60;99.90;;;;;;5108444;28;20036;-57
2023/05/29 01:45:31;;;;;;;6.32;3.55;;;15.50;99.90;;;;;;5106468;28;20028;-57
2023/05/29 01:47:57;;;;;;;10.63;3.35;;;15.50;99.90;;;;;;5109475;28;20385;-57
2023/05/29 01:50:24;;;;;;;8.30;4.10;;;15.40;99.90;;;;;;5107789;28;20028;-56
2023/05/29 01:52:50;;;;;;;8.68;4.07;;;15.30;99.90;;;;;;5108015;28;20030;-53
2023/05/29 01:55:15;;;;;;;12.82;3.53;;;15.30;99.90;;;;;;5108758;28;20028;-58
2023/05/29 01:57:41;;;;;;;7.43;3.50;;;15.30;99.90;;;;;;5107540;28;20061;-54
2023/05/29 02:00:08;;;;;;;6.57;3.17;;;15.30;99.90;;;;;;5108371;28;20039;-54
2023/05/29 02:02:41;;;;;;;10.02;3.20;;;15.20;99.90;;;;;;5107101;28;20059;-56
2023/05/29 02:05:08;;;;;;;5.70;3.30;;;15.10;99.90;;;;;;5110356;28;20098;-53
2023/05/29 02:07:34;;;;;;;8.90;3.72;;;14.90;99.90;;;;;;5106553;28;20061;-56
2023/05/29 02:10:00;;;;;;;8.18;3.20;;;14.80;99.90;;;;;;5108206;28;20051;-53
2023/05/29 02:12:25;;;;;;;8.07;3.25;;;14.70;99.90;;;;;;5109960;28;20066;-52
2023/05/29 02:14:51;;;;;;;9.00;2.58;;;14.70;99.90;;;;;;5110796;28;20036;-55
2023/05/29 02:17:19;;;;;;;6.82;3.28;;;14.60;99.90;;;;;;5110242;28;20541;-58
2023/05/29 02:19:44;;;;;;;10.10;3.20;;;14.50;99.90;;;;;;5106109;28;20095;-58
2023/05/29 02:22:10;;;;;;;6.30;3.28;;;14.50;99.90;;;;;;5106543;28;20482;-56
2023/05/29 02:24:35;;;;;;;6.55;3.15;;;14.50;99.90;;;;;;5105210;28;20036;-58
2023/05/29 02:27:02;;;;;;;9.02;2.97;;;14.40;99.90;;;;;;5105607;27;20456;-56
2023/05/29 02:29:28;;;;;;;7.68;3.22;;;14.40;99.90;;;;;;5109346;28;20489;-55
2023/05/29 02:31:54;;;;;;;8.40;3.22;;;14.40;99.90;;;;;;5109343;28;20032;-54
2023/05/29 02:34:22;;;;;;;8.70;3.42;;;14.40;99.90;;;;;;5109844;28;20038;-54
2023/05/29 02:36:48;;;;;;;9.40;3.28;;;14.40;99.90;;;;;;5106069;28;20412;-57
2023/05/29 02:39:14;;;;;;;6.57;3.17;;;14.30;99.90;;;;;;5108674;28;20024;-58
2023/05/29 02:41:39;;;;;;;7.60;3.55;;;14.40;99.90;;;;;;5109255;28;20029;-58
2023/05/29 02:44:05;;;;;;;6.53;3.35;;;14.40;99.90;;;;;;5109720;28;20030;-59
2023/05/29 02:46:30;;;;;;;7.18;3.42;;;14.30;99.90;;;;;;5108513;28;20023;-58
2023/05/29 02:48:56;;;;;;;5.68;2.90;;;14.20;99.90;;;;;;5109796;28;20038;-55
2023/05/29 02:51:21;;;;;;;4.78;2.60;;;14.30;99.90;;;;;;5108549;28;20023;-58
2023/05/29 02:53:48;;;;;;;14.13;3.53;;;14.10;99.90;;;;;;5110452;28;20046;-56
2023/05/29 02:56:15;;;;;;;8.57;2.97;;;14.10;99.90;;;;;;5108028;28;20030;-59
2023/05/29 02:58:41;;;;;;;7.20;3.20;;;14.10;99.90;;;;;;5110413;28;20081;-57
2023/05/29 03:01:06;;;;;;;9.65;3.17;;;14.10;99.90;;;;;;5107561;28;20522;-58
2023/05/29 03:03:32;;;;;;;9.88;3.60;;;14.00;99.90;;;;;;5109131;28;20102;-59
2023/05/29 03:05:57;;;;;;;8.90;3.40;;;14.00;99.90;;;;;;5109306;28;20028;-53
2023/05/29 03:08:25;;;;;;;10.05;3.45;;;13.90;99.90;;;;;;5107775;28;20035;-52
2023/05/29 03:10:51;;;;;;;8.82;3.60;;;13.90;99.90;;;;;;5110397;28;20026;-56
2023/05/29 03:13:18;;;;;;;10.07;3.97;;;13.90;99.90;;;;;;5109141;28;20547;-56
2023/05/29 03:15:44;;;;;;;8.55;3.25;;;13.80;99.90;;;;;;5111585;28;20027;-59
2023/05/29 03:18:09;;;;;;;8.80;3.05;;;13.80;99.90;;;;;;5110671;28;20019;-57
2023/05/29 03:20:35;;;;;;;10.40;3.80;;;13.70;99.90;;;;;;5112553;28;20055;-54
2023/05/29 03:23:01;;;;;;;8.13;3.83;;;13.60;99.90;;;;;;5110761;28;20434;-57
2023/05/29 03:25:26;;;;;;;11.63;3.92;;;13.60;99.90;;;;;;5112351;28;20428;-57
2023/05/29 03:27:52;;;;;;;13.13;4.03;;;13.60;99.90;;;;;;5112110;28;20083;-58
2023/05/29 03:30:19;;;;;;;9.68;4.18;;;13.50;99.90;;;;;;5113495;28;20020;-58
2023/05/29 03:32:44;;;;;;;14.65;4.40;;;13.60;99.90;;;;;;5111041;28;20028;-57
2023/05/29 03:35:10;;;;;;;12.82;4.30;;;13.50;99.90;;;;;;5112415;28;20031;-59
2023/05/29 03:37:35;;;;;;;11.40;3.58;;;13.50;99.90;;;;;;5110502;28;20065;-54
2023/05/29 03:40:01;;;;;;;15.07;3.53;;;13.50;99.90;;;;;;5106453;28;20042;-58
2023/05/29 03:42:27;;;;;;;8.50;4.45;;;13.50;99.90;;;;;;5113325;28;20027;-59
2023/05/29 03:44:53;;;;;;;10.82;3.83;;;13.40;99.90;;;;;;5113026;28;20501;-59
2023/05/29 03:47:20;;;;;;;10.45;4.45;;;13.40;99.90;;;;;;5113663;28;20020;-54
2023/05/29 03:49:45;;;;;;;13.75;4.57;;;13.40;99.90;;;;;;5111023;28;20050;-55
2023/05/29 03:52:11;;;;;;;12.48;3.65;;;13.40;99.90;;;;;;5109531;28;21605;-58
2023/05/29 03:54:37;;;;;;;10.25;3.33;;;13.40;99.90;;;;;;5112638;28;20028;-55
2023/05/29 03:57:02;;;;;;;14.15;4.20;;;13.40;99.90;;;;;;5112491;28;20420;-57
2023/05/29 03:59:28;;;;;;;7.75;3.55;;;13.40;99.90;;;;;;5112146;28;20070;-59
2023/05/29 04:01:53;;;;;;;11.98;3.88;;;13.30;99.90;;;;;;5112216;28;20020;-61
2023/05/29 04:04:19;;;;;;;9.70;3.92;;;13.40;99.90;;;;;;5112826;28;20027;-59
2023/05/29 04:06:44;;;;;;;19.95;4.15;;;13.30;99.90;;;;;;5112049;28;20027;-57
2023/05/29 04:09:10;;;;;;;11.82;4.07;;;13.30;99.90;;;;;;5106825;28;20031;-58
2023/05/29 04:11:36;;;;;;;10.02;3.72;;;13.30;99.90;;;;;;5111737;28;20032;-55
2023/05/29 04:14:02;;;;;;;15.07;3.50;;;13.30;99.90;;;;;;5112463;28;20076;-58
2023/05/29 04:16:28;;;;;;;12.07;4.00;;;13.30;99.90;;;;;;5113119;27;20054;-57
2023/05/29 04:18:54;;;;;;;11.10;4.43;;;13.20;99.90;;;;;;5112839;28;20036;-57
2023/05/29 04:21:20;;;;;;;9.90;4.15;;;13.20;99.90;;;;;;5112193;28;20019;-58
2023/05/29 04:23:46;;;;;;;13.98;4.38;;;13.30;99.90;;;;;;5106659;28;20031;-58
2023/05/29 04:26:12;;;;;;;13.88;4.68;;;13.30;99.90;;;;;;5111136;28;20135;-54
2023/05/29 04:28:38;;;;;;;20.85;4.78;;;13.30;99.90;;;;;;5113090;28;20015;-57
2023/05/29 04:31:05;;;;;;;15.82;4.55;;;13.20;99.90;;;;;;5112670;28;20023;-57
2023/05/29 04:33:32;;;;;;;14.55;5.65;;;13.20;99.90;;;;;;5111731;28;20027;-53
2023/05/29 04:36:00;;;;;;;13.13;3.92;;;13.10;99.90;;;;;;5112497;28;20023;-53
2023/05/29 04:38:26;;;;;;;16.50;4.40;;;13.10;99.90;;;;;;5109517;28;20038;-55
2023/05/29 04:40:57;;;;;;;12.50;4.15;;;13.10;99.90;;;;;;5112114;28;20118;-59
2023/05/29 04:43:22;;;;;;;13.32;4.47;;;13.20;99.90;;;;;;5111770;27;20019;-60
2023/05/29 04:45:48;;;;;;;20.75;4.45;;;13.10;99.90;;;;;;5109835;28;20096;-57
2023/05/29 04:48:14;;;;;;;20.38;4.90;;;13.20;99.90;;;;;;5112281;28;20023;-58
2023/05/29 04:50:39;;;;;;;15.98;4.68;;;13.20;99.90;;;;;;5109520;28;20043;-55
2023/05/29 04:53:05;;;;;;;10.77;4.15;;;13.30;99.90;;;;;;5109654;28;20085;-57
2023/05/29 04:55:31;;;;;;;14.07;3.90;;;13.20;99.90;;;;;;5111335;28;20039;-59
2023/05/29 04:57:56;;;;;;;17.48;5.75;;;13.30;99.90;;;;;;5110994;28;20016;-56
2023/05/29 05:00:22;;;;;;;19.48;5.18;;;13.20;99.90;;;;;;5111243;28;20030;-52
2023/05/29 05:02:49;;;;;;;20.85;5.22;;;13.20;99.90;;;;;;5109785;28;20035;-57
2023/05/29 05:05:15;;;;;;;17.70;6.07;;;13.20;99.90;;;;;;5106713;28;20023;-58
2023/05/29 05:07:40;;;;;;;18.95;5.05;;;13.20;99.90;;;;;;5108691;28;20023;-58
2023/05/29 05:10:06;;;;;;;18.10;5.90;;;13.20;99.90;;;;;;5105921;28;20453;-57
2023/05/29 05:12:32;;;;;;;21.52;4.97;;;13.20;99.90;;;;;;5112020;27;20073;-57
2023/05/29 05:14:57;;;;;;;21.83;4.97;;;13.20;99.90;;;;;;5108902;28;20031;-53
2023/05/29 05:17:23;;;;;;;22.75;6.43;;;13.10;99.90;;;;;;5109402;28;20059;-57
2023/05/29 05:19:49;;;;;;;17.90;4.38;;;13.10;99.90;;;;;;5105247;28;20076;-60
2023/05/29 05:22:15;;;;;;;19.33;4.90;;;13.10;99.90;;;;;;5108475;28;20103;-58
2023/05/29 05:24:41;;;;;;;20.85;4.97;;;13.20;99.90;;;;;;5104972;28;20042;-55
2023/05/29 05:27:06;;;;;;;21.95;5.47;;;13.20;99.90;;;;;;5110371;28;20485;-58
2023/05/29 05:29:32;;;;;;;18.40;4.53;;;13.30;99.90;;;;;;5107566;27;20052;-57
2023/05/29 05:31:58;;;;;;;17.55;5.13;;;13.30;99.90;;;;;;5106639;28;20046;-58
2023/05/29 05:34:23;;;;;;;13.45;4.75;;;13.30;99.90;;;;;;5108144;28;20026;-59
2023/05/29 05:36:49;;;;;;;13.50;4.18;;;13.30;99.90;;;;;;5109032;28;20035;-60
2023/05/29 05:39:15;;;;;;;24.85;5.70;;;13.30;99.90;;;;;;5104372;28;20038;-59
2023/05/29 05:41:40;;;;;;;23.60;4.95;;;13.40;99.90;;;;;;5108402;28;20089;-57
2023/05/29 05:44:06;;;;;;;24.83;4.55;;;13.40;99.90;;;;;;5110076;28;20027;-61
2023/05/29 05:46:32;;;;;;;21.83;4.68;;;13.40;99.90;;;;;;5110667;28;20078;-57
2023/05/29 05:48:57;;;;;;;21.90;5.10;;;13.50;99.90;;;;;;5109801;28;20097;-56
2023/05/29 05:51:23;;;;;;;20.52;4.95;;;13.50;99.90;;;;;;5107726;28;20031;-57
2023/05/29 05:53:49;;;;;;;16.17;4.78;;;13.60;99.90;;;;;;5107861;28;20032;-56
2023/05/29 05:56:15;;;;;;;17.95;5.68;;;13.50;99.90;;;;;;5108720;28;20076;-57
2023/05/29 05:58:41;;;;;;;23.58;4.35;;;13.60;99.90;;;;;;5106916;28;20020;-57
2023/05/29 06:01:08;;;;;;;19.38;4.32;;;13.60;99.90;;;;;;5107426;28;20016;-57
2023/05/29 06:03:34;;;;;;;19.58;3.83;;;13.60;99.90;;;;;;5109111;28;20049;-58
2023/05/29 06:05:59;;;;;;;16.98;4.13;;;13.60;99.90;;;;;;5109516;28;20039;-59
2023/05/29 06:08:25;;;;;;;18.60;3.95;;;13.60;99.90;;;;;;5109458;28;20032;-56
2023/05/29 06:10:50;;;;;;;16.48;3.83;;;13.60;99.90;;;;;;5109317;28;20027;-62
2023/05/29 06:13:16;;;;;;;15.27;3.45;;;13.70;99.90;;;;;;5107686;28;20020;-57
2023/05/29 06:15:43;;;;;;;18.98;4.35;;;13.70;99.90;;;;;;5109459;28;20110;-57
2023/05/29 06:18:08;;;;;;;26.38;4.40;;;13.70;99.90;;;;;;5109378;28;20441;-59
2023/05/29 06:20:34;;;;;;;19.15;5.18;;;13.70;99.90;;;;;;5107609;28;20059;-59
2023/05/29 06:22:59;;;;;;;21.38;4.70;;;13.70;99.90;;;;;;5107405;28;20051;-56
2023/05/29 06:25:32;;;;;;;17.83;4.70;;;13.80;99.90;;;;;;5105356;28;20071;-59
2023/05/29 06:28:02;;;;;;;13.52;4.55;;;13.90;99.90;;;;;;5107142;28;20393;-59
2023/05/29 06:30:28;;;;;;;18.38;5.03;;;13.90;99.90;;;;;;5109058;28;20024;-57
2023/05/29 06:32:54;;;;;;;20.45;4.43;;;14.00;99.90;;;;;;5107020;28;20027;-56
2023/05/29 06:35:19;;;;;;;24.67;4.80;;;14.00;99.90;;;;;;5105795;28;20473;-57
2023/05/29 06:37:46;;;;;;;20.50;4.70;;;14.10;99.90;;;;;;5110667;28;20038;-57
2023/05/29 06:40:12;;;;;;;24.92;4.80;;;14.00;99.90;;;;;;5107326;28;20023;-57
2023/05/29 06:42:38;;;;;;;19.38;4.30;;;14.10;99.90;;;;;;5108870;28;20023;-58
2023/05/29 06:45:04;;;;;;;17.75;4.38;;;14.10;99.90;;;;;;5109660;28;20039;-56
2023/05/29 06:47:30;;;;;;;17.02;4.20;;;14.10;99.90;;;;;;5109068;28;20035;-58
2023/05/29 06:49:55;;;;;;;13.85;4.78;;;14.10;99.90;;;;;;5110437;28;20390;-59
2023/05/29 06:52:21;;;;;;;15.05;4.28;;;14.10;99.90;;;;;;5108155;28;20024;-59
2023/05/29 06:54:46;;;;;;;23.25;3.90;;;14.20;99.90;;;;;;5109795;28;20084;-59
2023/05/29 06:57:12;;;;;;;22.27;4.10;;;14.30;99.90;;;;;;5107345;28;20023;-58
2023/05/29 06:59:38;;;;;;;19.45;4.40;;;14.40;99.90;;;;;;5106182;28;20051;-59
2023/05/29 07:02:04;;;;;;;18.02;4.65;;;14.50;99.90;;;;;;5109418;28;20463;-60
2023/05/29 07:04:29;;;;;;;19.92;4.43;;;14.50;99.90;;;;;;5110385;28;20092;-58
2023/05/29 07:06:55;;;;;;;16.00;4.00;;;14.60;99.90;;;;;;5107801;28;20035;-58
2023/05/29 07:09:20;;;;;;;14.48;3.75;;;14.60;99.90;;;;;;5108598;28;20085;-57
2023/05/29 07:11:46;;;;;;;13.43;3.92;;;14.60;99.90;;;;;;5108817;28;20680;-56
2023/05/29 07:14:12;;;;;;;14.80;3.72;;;14.70;99.90;;;;;;5106169;28;20473;-53
2023/05/29 07:16:37;;;;;;;18.40;3.88;;;14.80;99.90;;;;;;5108813;28;20035;-57
2023/05/29 07:19:03;;;;;;;26.33;4.88;;;14.80;99.90;;;;;;5108468;28;20036;-59
2023/05/29 07:21:28;;;;;;;14.60;3.63;;;14.90;99.90;;;;;;5108470;28;20031;-57
2023/05/29 07:23:54;;;;;;;17.55;3.65;;;15.00;99.90;;;;;;5108926;28;20401;-54
2023/05/29 07:26:21;;;;;;;11.15;3.90;;;15.00;99.90;;;;;;5107529;28;20054;-56
2023/05/29 07:28:47;;;;;;;19.40;4.45;;;14.90;99.90;;;;;;5103658;28;20023;-59
2023/05/29 07:31:12;;;;;;;16.92;4.07;;;15.00;99.90;;;;;;5107006;28;20035;-59
2023/05/29 07:33:40;;;;;;;23.23;4.55;;;15.00;99.90;;;;;;5108990;28;20032;-59
2023/05/29 07:36:07;;;;;;;13.70;4.05;;;15.10;99.90;;;;;;5110012;28;20485;-59
2023/05/29 07:38:33;;;;;;;14.27;3.92;;;15.10;99.90;;;;;;5108765;28;20354;-58
2023/05/29 07:40:58;;;;;;;18.38;4.63;;;15.10;99.90;;;;;;5102799;28;20031;-59
2023/05/29 07:43:24;;;;;;;16.85;3.70;;;15.20;99.90;;;;;;5106481;28;20505;-57
2023/05/29 07:45:49;;;;;;;17.25;4.22;;;15.30;99.90;;;;;;5105022;28;20051;-58
2023/05/29 07:48:15;;;;;;;16.63;4.43;;;15.30;99.90;;;;;;5107101;28;20560;-59
2023/05/29 07:50:41;;;;;;;20.60;4.80;;;15.30;99.90;;;;;;5105379;28;20390;-54
2023/05/29 07:53:06;;;;;;;16.85;4.55;;;15.40;99.90;;;;;;5107536;28;20811;-58
2023/05/29 07:55:33;;;;;;;17.27;4.30;;;15.40;99.90;;;;;;5105227;28;20027;-53
2023/05/29 07:57:59;;;;;;;16.13;4.10;;;15.60;99.90;;;;;;5109257;28;20024;-58
2023/05/29 08:00:25;;;;;;;24.23;4.68;;;15.70;99.90;;;;;;5110150;28;20034;-57
2023/05/29 08:02:51;;;;;;;21.13;5.20;;;15.80;99.90;;;;;;5110151;28;20016;-52
2023/05/29 08:05:17;;;;;;;20.70;4.45;;;15.80;99.90;;;;;;5113196;28;20072;-57
2023/05/29 08:07:43;;;;;;;20.77;5.32;;;15.90;99.90;;;;;;5110669;28;20032;-52
2023/05/29 08:10:09;;;;;;;24.30;4.35;;;16.00;99.90;;;;;;5109472;28;20408;-57
2023/05/29 08:12:35;;;;;;;19.33;3.80;;;16.10;99.90;;;;;;5111599;27;20023;-57
2023/05/29 08:15:02;;;;;;;16.42;3.50;;;16.30;99.90;;;;;;5111637;28;20031;-59
2023/05/29 08:17:27;;;;;;;11.98;3.15;;;16.40;99.90;;;;;;5112578;28;20067;-59
2023/05/29 08:19:53;;;;;;;16.20;3.53;;;16.40;99.90;;;;;;5111532;28;20055;-57
2023/05/29 08:22:19;;;;;;;12.45;3.97;;;16.40;99.90;;;;;;5111533;28;20020;-58
2023/05/29 08:24:44;;;;;;;16.15;4.10;;;16.50;99.90;;;;;;5112671;28;20015;-57
2023/05/29 08:27:10;;;;;;;13.43;3.97;;;16.60;99.90;;;;;;5110145;28;20024;-57
2023/05/29 08:29:36;;;;;;;12.88;3.55;;;16.60;99.90;;;;;;5111678;28;20076;-57
2023/05/29 08:32:02;;;;;;;16.85;4.00;;;16.60;99.90;;;;;;5112398;28;20484;-57
2023/05/29 08:34:27;;;;;;;11.98;4.00;;;16.60;99.90;;;;;;5111296;28;20026;-58
2023/05/29 08:36:54;;;;;;;19.48;5.22;;;16.70;99.90;;;;;;5110488;28;20937;-53
2023/05/29 08:39:20;;;;;;;15.00;3.85;;;16.70;99.90;;;;;;5109407;28;20104;-54
2023/05/29 08:42:01;;;;;;;20.05;4.60;;;16.80;99.90;;;;;;5109686;27;20106;-56
2023/05/29 08:44:31;;;;;;;15.32;3.65;;;16.90;99.90;;;;;;5110814;28;20127;-54
2023/05/29 08:47:00;;;;;;;16.00;4.78;;;17.00;99.90;;;;;;5109090;28;20043;-54
2023/05/29 08:49:29;;;;;;;17.23;3.70;;;17.00;99.90;;;;;;5109100;28;20059;-52
2023/05/29 08:52:05;;;;;;;18.08;4.05;;;17.00;99.90;;;;;;5108445;28;20027;-58
2023/05/29 08:54:32;;;;;;;11.20;3.03;;;17.10;99.90;;;;;;5108953;28;20027;-56
2023/05/29 08:56:59;;;;;;;15.60;3.25;;;17.10;99.90;;;;;;5110704;28;20031;-55
2023/05/29 08:59:25;;;;;;;15.50;3.58;;;17.30;99.90;;;;;;5111925;28;20032;-52
2023/05/29 09:01:51;;;;;;;11.07;3.13;;;17.40;99.90;;;;;;5109848;28;20024;-55
2023/05/29 09:04:16;;;;;;;16.13;4.07;;;17.50;99.90;;;;;;5111750;28;20030;-57
2023/05/29 09:06:44;;;;;;;15.90;3.33;;;17.50;99.90;;;;;;5109248;28;20032;-57
2023/05/29 09:09:10;;;;;;;15.77;2.97;;;17.50;99.90;;;;;;5107783;28;20088;-58
2023/05/29 09:11:36;;;;;;;11.48;3.28;;;17.60;99.90;;;;;;5110272;28;20415;-59
2023/05/29 09:14:03;;;;;;;24.48;3.92;;;17.70;99.90;;;;;;5112372;28;20024;-58
2023/05/29 09:16:28;;;;;;;12.10;3.60;;;17.80;99.90;;;;;;5106928;28;20069;-58
2023/05/29 09:19:04;;;;;;;12.10;2.92;;;17.90;99.90;;;;;;5111063;28;20031;-59
2023/05/29 09:21:33;;;;;;;16.77;3.70;;;17.90;99.90;;;;;;5109880;28;20031;-58
2023/05/29 09:24:04;;;;;;;14.43;3.60;;;18.00;99.90;;;;;;5109430;28;20494;-58
2023/05/29 09:26:30;;;;;;;19.23;3.22;;;18.10;99.90;;;;;;5109392;28;20244;-59
2023/05/29 09:28:56;;;;;;;13.57;3.70;;;18.40;99.90;;;;;;5110632;28;20377;-58
2023/05/29 09:31:22;;;;;;;15.98;3.03;;;18.40;99.90;;;;;;5109085;28;20023;-59
2023/05/29 09:33:51;;;;;;;16.23;3.50;;;18.50;99.90;;;;;;5110475;28;20084;-59
2023/05/29 09:36:21;;;;;;;18.77;4.40;;;18.50;99.90;;;;;;5107986;28;20031;-59
2023/05/29 09:38:47;;;;;;;12.48;4.40;;;18.40;99.90;;;;;;5110062;28;20031;-56
2023/05/29 09:41:13;;;;;;;17.10;3.60;;;18.50;99.90;;;;;;5109405;28;20031;-58
2023/05/29 09:43:39;;;;;;;18.45;3.17;;;18.60;99.90;;;;;;5109350;28;20036;-56
2023/05/29 09:46:09;;;;;;;13.65;3.90;;;18.50;99.90;;;;;;5109735;28;20093;-56
2023/05/29 09:48:35;;;;;;;18.90;3.90;;;18.60;99.90;;;;;;5105017;28;20099;-57
2023/05/29 09:51:02;;;;;;;16.05;4.38;;;18.70;99.90;;;;;;5109801;28;20110;-55
2023/05/29 09:53:28;;;;;;;24.65;4.07;;;18.90;99.90;;;;;;5108219;28;20494;-57
2023/05/29 09:55:57;;;;;;;14.60;3.63;;;18.80;99.90;;;;;;5109380;28;20056;-56
2023/05/29 09:58:23;;;;;;;20.10;3.47;;;18.80;99.90;;;;;;5107885;28;20019;-57
2023/05/29 10:00:51;;;;;;;13.30;3.90;;;19.00;99.90;;;;;;5109827;28;20016;-58
2023/05/29 10:03:17;;;;;;;15.77;3.75;;;19.10;99.90;;;;;;5105077;28;20027;-59
2023/05/29 10:05:47;;;;;;;17.58;3.72;;;19.00;99.90;;;;;;5110199;28;20024;-59
2023/05/29 10:08:14;;;;;;;13.32;3.97;;;19.10;99.90;;;;;;5107383;28;20054;-58
2023/05/29 10:10:44;;;;;;;16.55;3.95;;;19.30;99.90;;;;;;5107342;28;20032;-58
2023/05/29 10:13:14;;;;;;;18.75;4.45;;;19.30;99.90;;;;;;5104757;28;20024;-60
2023/05/29 10:15:45;;;;;;;16.13;4.38;;;19.40;99.90;;;;;;5104107;28;20485;-56
2023/05/29 10:18:23;;;;;;;14.70;4.03;;;19.50;99.90;;;;;;5106775;28;20069;-56
2023/05/29 10:20:51;;;;;;;13.68;3.92;;;19.60;99.90;;;;;;5106228;28;20031;-58
2023/05/29 10:23:20;;;;;;;23.45;3.80;;;19.60;99.90;;;;;;5107691;28;20394;-54
2023/05/29 10:25:50;;;;;;;14.73;3.10;;;19.70;99.90;;;;;;5105127;28;20485;-58
2023/05/29 10:28:15;;;;;;;14.32;3.83;;;19.90;99.90;;;;;;5109208;28;20385;-55
2023/05/29 10:30:51;;;;;;;14.43;3.30;;;20.00;99.90;;;;;;5108036;28;20023;-53
2023/05/29 10:33:29;;;;;;;17.42;3.63;;;20.00;99.90;;;;;;5104555;28;20055;-58
2023/05/29 10:36:14;;;;;;;13.68;3.13;;;20.10;99.90;;;;;;5112256;27;20501;-59
2023/05/29 10:38:45;;;;;;;9.65;3.08;;;20.00;99.90;;;;;;5106812;28;20442;-58
2023/05/29 10:41:26;;;;;;;14.50;3.75;;;20.20;99.90;;;;;;5106948;28;20057;-59
2023/05/29 10:44:02;;;;;;;16.08;5.57;;;20.00;99.90;;;;;;5108498;28;20028;-55
2023/05/29 10:46:43;;;;;;;12.65;3.40;;;19.90;99.90;;;;;;5106084;28;20065;-57
2023/05/29 10:49:21;;;;;;;13.25;3.70;;;19.80;99.90;;;;;;5107443;28;20054;-59
2023/05/29 10:51:50;;;;;;;14.23;3.20;;;20.00;99.90;;;;;;5105488;28;20032;-57
2023/05/29 10:54:18;;;;;;;15.05;3.85;;;20.20;99.90;;;;;;5106899;28;20497;-60
2023/05/29 10:56:51;;;;;;;17.88;4.13;;;20.40;99.90;;;;;;5106519;28;20027;-60
2023/05/29 10:59:18;;;;;;;19.08;4.05;;;20.40;99.90;;;;;;5104587;28;20031;-58
2023/05/29 11:01:43;;;;;;;11.65;4.03;;;20.50;99.90;;;;;;5107090;28;20038;-59
2023/05/29 11:04:19;;;;;;;14.07;3.80;;;20.30;99.90;;;;;;5103988;28;20028;-58
2023/05/29 11:06:45;;;;;;;18.80;4.28;;;20.40;99.90;;;;;;5103929;28;20047;-58
2023/05/29 11:09:37;;;;;;;13.70;3.58;;;20.50;99.90;;;;;;5106394;28;20024;-59
2023/05/29 11:12:33;;;;;;;16.05;4.30;;;20.60;99.90;;;;;;5107467;28;20507;-59
2023/05/29 11:15:05;;;;;;;15.70;3.53;;;20.80;99.90;;;;;;5107705;28;21987;-60
2023/05/29 11:17:37;;;;;;;14.93;4.07;;;21.00;99.90;;;;;;5107022;28;20032;-60
2023/05/29 11:20:07;;;;;;;16.13;3.92;;;21.00;99.90;;;;;;5101331;28;20024;-59
2023/05/29 11:22:48;;;;;;;12.32;3.47;;;21.10;99.90;;;;;;5101899;28;20026;-59
2023/05/29 11:25:14;;;;;;;15.45;3.90;;;21.00;99.90;;;;;;5109353;28;20028;-58
2023/05/29 11:27:40;;;;;;;13.63;4.18;;;21.20;99.90;;;;;;5108741;28;20490;-59
2023/05/29 11:30:06;;;;;;;16.88;5.30;;;21.30;99.90;;;;;;5105422;28;20055;-60
2023/05/29 11:32:35;;;;;;;9.68;3.55;;;21.50;99.90;;;;;;5108570;28;20104;-59
2023/05/29 11:35:07;;;;;;;15.13;3.85;;;21.90;99.90;;;;;;5105406;28;20028;-60
2023/05/29 11:37:33;;;;;;;13.40;4.05;;;21.80;99.90;;;;;;5107742;28;20486;-60
2023/05/29 11:39:58;;;;;;;12.35;3.78;;;21.90;99.90;;;;;;5110632;28;20026;-60
2023/05/29 11:42:24;;;;;;;14.02;3.67;;;22.00;99.90;;;;;;5111408;28;20032;-60
2023/05/29 11:44:50;;;;;;;19.13;3.97;;;22.10;99.90;;;;;;5106602;28;20423;-57
2023/05/29 11:47:15;;;;;;;15.05;4.05;;;22.20;99.90;;;;;;5112116;28;20028;-58
2023/05/29 11:49:41;;;;;;;18.00;4.65;;;22.30;99.90;;;;;;5111946;28;20032;-58
2023/05/29 11:52:11;;;;;;;14.32;3.65;;;22.60;99.90;;;;;;5105235;28;20081;-60
2023/05/29 11:54:37;;;;;;;16.15;3.97;;;22.30;99.90;;;;;;5105661;28;20020;-61
2023/05/29 11:57:05;;;;;;;14.93;4.13;;;22.30;99.90;;;;;;5107769;28;20042;-61
2023/05/29 11:59:32;;;;;;;16.20;3.90;;;22.60;99.90;;;;;;5106010;28;20034;-59
2023/05/29 12:01:58;;;;;;;14.27;3.95;;;22.70;99.90;;;;;;5108840;28;20073;-60
2023/05/29 12:04:23;;;;;;;13.98;3.70;;;22.60;99.90;;;;;;5113187;28;20026;-59
2023/05/29 12:06:49;;;;;;;13.35;4.05;;;23.00;99.90;;;;;;5110618;28;20035;-57
2023/05/29 12:09:28;;;;;;;12.52;4.68;;;23.50;99.90;;;;;;5110167;28;20523;-56
2023/05/29 12:12:01;;;;;;;16.27;3.53;;;23.90;99.20;;;;;;5113417;28;20028;-56
2023/05/29 12:14:26;;;;;;;10.50;3.97;;;24.10;98.90;;;;;;5107747;28;20039;-60
2023/05/29 12:16:52;;;;;;;15.32;3.45;;;24.20;97.30;;;;;;5107307;28;20028;-58
2023/05/29 12:19:17;;;;;;;19.58;4.03;;;24.10;98.10;;;;;;5112075;28;20546;-57
2023/05/29 12:21:44;;;;;;;12.95;3.70;;;24.30;97.50;;;;;;5112629;28;20023;-57
2023/05/29 12:24:10;;;;;;;15.90;4.00;;;24.50;97.10;;;;;;5111771;28;20019;-59
2023/05/29 12:26:36;;;;;;;12.35;3.47;;;24.60;96.20;;;;;;5111342;28;20493;-60
2023/05/29 12:29:07;;;;;;;16.88;4.03;;;24.60;95.20;;;;;;5113048;28;20054;-60
2023/05/29 12:31:33;;;;;;;9.82;3.15;;;24.20;94.80;;;;;;5112890;28;20031;-60
2023/05/29 12:34:12;;;;;;;9.55;3.47;;;24.00;95.30;;;;;;5112815;28;20012;-58
2023/05/29 12:36:40;;;;;;;11.70;3.92;;;24.00;94.10;;;;;;5112285;28;20016;-59
2023/05/29 12:39:10;;;;;;;13.52;3.50;;;24.10;94.60;;;;;;5110136;28;20034;-56